EDT,Max TemperatureF,Mean TemperatureF,Min TemperatureF,Max Dew PointF,MeanDew PointF,Min DewpointF,Max Humidity, Mean Humidity, Min Humidity, Max Sea Level PressureIn, Mean Sea Level PressureIn, Min Sea Level PressureIn, Max VisibilityMiles, Mean VisibilityMiles, Min VisibilityMiles, Max Wind SpeedMPH, Mean Wind SpeedMPH, Max Gust SpeedMPH,PrecipitationIn, CloudCover, Events, WindDirDegrees
2012-8-1,95,82,68,70,66,60,90,61,31,29.94,29.87,29.80,10,10,10,15,3,,0.00,1,Thunderstorm,71
2012-8-2,94,81,68,73,70,66,90,67,44,29.96,29.88,29.84,10,9,4,14,2,,0.06,2,Rain-Thunderstorm,120
2012-8-3,93,80,67,72,69,64,90,68,46,30.06,29.99,29.92,10,10,5,13,3,17,T,2,Rain-Thunderstorm,239
2012-8-4,93,81,69,72,69,66,90,66,41,30.18,30.12,30.05,10,10,6,24,5,22,0.00,1,,191
2012-8-5,96,84,72,71,69,66,93,67,41,30.22,30.14,30.07,10,10,10,17,7,23,T,1,,209
2012-8-6,90,82,73,72,71,69,93,73,52,30.13,30.06,29.99,10,10,4,16,5,22,0.18,3,Rain-Thunderstorm,248
2012-8-7,89,81,72,73,71,70,93,76,59,30.05,30.00,29.94,10,9,6,9,4,12,0.00,5,,211
2012-8-8,90,78,66,75,70,65,93,76,59,30.01,29.97,29.94,10,10,6,15,2,22,0.02,1,Rain-Thunderstorm,206
2012-8-9,92,78,64,72,68,62,93,73,52,30.01,29.92,29.85,10,10,6,12,4,17,0.03,0,,210
2012-8-10,86,78,70,72,69,67,93,76,58,29.90,29.83,29.78,10,9,4,18,6,25,0.33,6,Rain-Thunderstorm,219
2012-8-11,83,76,69,72,69,64,97,78,58,29.95,29.89,29.81,10,10,8,18,3,24,0.06,6,Rain-Thunderstorm,217
2012-8-12,87,76,64,70,63,57,93,65,37,30.01,29.96,29.91,10,10,7,12,4,16,0.00,4,,278
2012-8-13,90,75,60,66,62,58,97,68,38,30.05,29.98,29.93,10,10,7,12,2,18,0.00,1,,212
2012-8-14,92,78,63,68,64,59,93,65,36,29.94,29.89,29.83,10,10,10,13,3,20,0.00,1,Thunderstorm,231
2012-8-15,88,78,67,68,66,62,90,71,51,29.94,29.89,29.86,10,10,10,6,3,,T,2,Rain,250
2012-8-16,91,78,65,64,60,55,87,60,32,30.03,29.97,29.91,10,10,10,10,4,15,0.00,1,,304
2012-8-17,92,77,61,67,63,59,93,67,41,29.96,29.88,29.81,10,9,3,16,6,30,0.00,1,,238
2012-8-18,88,77,65,67,62,58,93,65,36,29.94,29.88,29.83,10,10,6,12,3,16,0.00,3,,358
2012-8-19,73,70,67,66,64,61,93,83,73,29.94,29.90,29.86,10,8,2,14,6,17,0.73,7,Rain,53
2012-8-20,81,73,65,65,63,62,87,71,54,29.98,29.91,29.86,10,10,7,15,2,21,0.03,6,Rain,358
2012-8-21,85,74,63,66,63,60,93,70,47,30.07,30.01,29.97,10,5,0,8,1,10,T,2,Fog-Rain,70
2012-8-22,84,76,67,67,65,63,93,72,51,30.15,30.09,30.06,10,10,9,10,3,14,0.00,4,,56
2012-8-23,88,77,66,67,63,59,93,67,40,30.17,30.12,30.08,10,9,2,10,3,14,0.00,2,,86
2012-8-24,83,73,63,65,60,47,93,61,28,30.16,30.13,30.11,10,9,6,10,2,15,T,0,,66
2012-8-25,78,72,65,61,60,57,87,74,61,30.15,30.12,30.10,10,10,7,23,8,29,0.01,7,Rain,6
2012-8-26,82,74,65,65,63,62,93,74,54,30.22,30.14,30.09,10,9,3,9,2,14,0.02,6,Rain,280
2012-8-27,90,75,60,68,64,58,93,67,41,30.18,30.10,30.00,10,8,2,10,1,13,0.00,0,,194
2012-8-28,92,81,69,71,68,64,97,67,36,30.04,29.96,29.87,10,10,7,17,4,21,T,4,Rain,227
2012-8-29,90,78,66,70,66,59,93,65,37,30.01,29.96,29.91,10,8,2,12,4,16,0.00,4,,40
2012-8-30,90,77,64,71,66,61,93,67,41,30.13,30.07,29.99,10,9,5,13,4,17,0.00,1,,190
2012-8-31,96,85,73,72,71,69,93,68,42,30.22,30.12,30.04,10,9,6,14,6,18,0.00,3,,226